createdAt,value
2019-05-28T00:00:08.868Z,100273.16
2019-05-28T00:01:16.504Z,100275.19
2019-05-28T00:02:23.335Z,100275.85
2019-05-28T00:03:31.311Z,100276.55
2019-05-28T00:04:38.123Z,100279.17
2019-05-28T00:05:46.187Z,100276.42
2019-05-28T00:06:53.007Z,100271.71
2019-05-28T00:08:00.584Z,100271.34
2019-05-28T00:09:09.815Z,100279.17
2019-05-28T00:10:18.140Z,100272.09
2019-05-28T00:11:25.262Z,100278.00
2019-05-28T00:12:32.960Z,100273.91
2019-05-28T00:13:40.142Z,100273.86
2019-05-28T00:14:48.101Z,100268.63
2019-05-28T00:15:55.417Z,100271.55
2019-05-28T00:17:03.421Z,100267.09
2019-05-28T00:18:10.267Z,100269.09
2019-05-28T00:19:18.298Z,100266.95
2019-05-28T00:20:25.326Z,100263.55
2019-05-28T00:21:33.357Z,100263.44
2019-05-28T00:22:40.721Z,100264.26
2019-05-28T00:23:48.876Z,100268.75
2019-05-28T00:24:55.666Z,100271.09
2019-05-28T00:26:03.296Z,100271.34
2019-05-28T00:27:10.549Z,100273.38
2019-05-28T00:28:18.149Z,100274.34
2019-05-28T00:29:25.264Z,100268.73
2019-05-28T00:30:32.872Z,100274.91
2019-05-28T00:31:39.705Z,100268.02
2019-05-28T00:32:47.355Z,100269.20
2019-05-28T00:33:54.489Z,100270.42
2019-05-28T00:35:02.485Z,100263.86
2019-05-28T00:36:09.788Z,100269.40
2019-05-28T00:37:17.951Z,100267.03
2019-05-28T00:38:25.251Z,100268.69
2019-05-28T00:39:32.888Z,100270.31
2019-05-28T00:40:40.016Z,100265.48
2019-05-28T00:41:47.951Z,100268.05
2019-05-28T00:42:54.933Z,100269.20
2019-05-28T00:44:02.890Z,100265.29
2019-05-28T00:45:10.789Z,100264.26
2019-05-28T00:46:18.397Z,100261.17
2019-05-28T00:47:25.204Z,100259.17
2019-05-28T00:48:33.294Z,100257.20
2019-05-28T00:49:40.462Z,100255.78
2019-05-28T00:50:48.383Z,100253.92
2019-05-28T00:51:55.189Z,100255.00
2019-05-28T00:53:02.992Z,100251.03
2019-05-28T00:54:09.808Z,100251.80
2019-05-28T00:55:19.521Z,100249.99
2019-05-28T00:56:27.025Z,100247.61
2019-05-28T00:57:35.422Z,100241.06
2019-05-28T00:58:42.632Z,100243.00
2019-05-28T00:59:51.956Z,100248.97
2019-05-28T01:00:59.237Z,100242.02
2019-05-28T01:02:06.831Z,100245.39
2019-05-28T01:03:13.639Z,100239.80
2019-05-28T01:04:21.250Z,100237.98
2019-05-28T01:05:28.060Z,100239.16
2019-05-28T01:06:36.157Z,100237.01
2019-05-28T01:07:42.990Z,100236.06
2019-05-28T01:08:50.592Z,100234.31
2019-05-28T01:09:57.393Z,100232.72
2019-05-28T01:11:05.000Z,100224.61
2019-05-28T01:12:12.161Z,100229.38
2019-05-28T01:13:19.803Z,100232.02
2019-05-28T01:14:26.649Z,100227.69
2019-05-28T01:15:34.236Z,100226.16
2019-05-28T01:16:41.112Z,100221.47
2019-05-28T01:17:48.731Z,100227.04
2019-05-28T01:18:55.580Z,100228.33
2019-05-28T01:20:03.169Z,100224.81
2019-05-28T01:21:09.983Z,100224.81
2019-05-28T01:22:18.019Z,100227.33
2019-05-28T01:23:25.296Z,100235.03
2019-05-28T01:24:32.909Z,100235.80
2019-05-28T01:25:39.796Z,100236.25
2019-05-28T01:26:47.384Z,100239.53
2019-05-28T01:27:54.481Z,100235.67
2019-05-28T01:29:02.090Z,100230.99
2019-05-28T01:30:09.450Z,100237.73
2019-05-28T01:31:17.085Z,100233.56
2019-05-28T01:32:24.291Z,100234.39
2019-05-28T01:33:31.958Z,100239.12
2019-05-28T01:34:39.159Z,100235.27
2019-05-28T01:35:46.742Z,100235.33
2019-05-28T01:36:53.925Z,100238.48
2019-05-28T01:38:01.613Z,100241.39
2019-05-28T01:39:09.616Z,100238.94
2019-05-28T01:40:18.788Z,100240.44
2019-05-28T01:41:27.151Z,100237.78
2019-05-28T01:42:34.753Z,100239.84
2019-05-28T01:43:41.572Z,100241.01
2019-05-28T01:44:49.217Z,100240.23
2019-05-28T01:45:56.716Z,100239.32
2019-05-28T01:47:04.315Z,100243.12
2019-05-28T01:48:11.240Z,100239.32
2019-05-28T01:49:18.865Z,100236.17
2019-05-28T01:50:25.721Z,100237.14
2019-05-28T01:51:33.313Z,100230.59
2019-05-28T01:52:40.499Z,100230.07
2019-05-28T01:53:48.129Z,100232.12
2019-05-28T01:54:55.266Z,100232.47
2019-05-28T01:56:03.321Z,100231.03
2019-05-28T01:57:10.503Z,100234.30
2019-05-28T01:58:18.448Z,100232.95
2019-05-28T01:59:25.246Z,100234.70
2019-05-28T02:00:32.862Z,100231.89
2019-05-28T02:01:39.668Z,100234.52
2019-05-28T02:02:47.739Z,100235.34
2019-05-28T02:03:55.067Z,100236.11
2019-05-28T02:05:03.081Z,100235.34
2019-05-28T02:06:09.888Z,100235.86
2019-05-28T02:07:17.479Z,100243.12
2019-05-28T02:08:24.413Z,100241.41
2019-05-28T02:09:32.007Z,100241.31
2019-05-28T02:10:38.834Z,100242.17
2019-05-28T02:11:47.092Z,100244.28
2019-05-28T02:12:53.974Z,100241.59
2019-05-28T02:14:01.946Z,100240.95
2019-05-28T02:15:10.295Z,100240.09
2019-05-28T02:16:18.257Z,100238.50
2019-05-28T02:17:25.069Z,100233.87
2019-05-28T02:18:32.995Z,100236.77
2019-05-28T02:19:39.830Z,100236.81
2019-05-28T02:20:47.432Z,100239.55
2019-05-28T02:21:54.237Z,100247.44
2019-05-28T02:23:02.258Z,100242.93
2019-05-28T02:24:09.069Z,100242.56
2019-05-28T02:25:17.335Z,100246.84
2019-05-28T02:26:24.113Z,100241.76
2019-05-28T02:27:32.406Z,100243.56
2019-05-28T02:28:39.202Z,100244.61
2019-05-28T02:29:47.182Z,100248.08
2019-05-28T02:30:54.365Z,100250.98
2019-05-28T02:32:02.663Z,100254.50
2019-05-28T02:33:09.497Z,100253.67
2019-05-28T02:34:17.442Z,100249.48
2019-05-28T02:35:24.708Z,100250.45
2019-05-28T02:36:32.323Z,100247.23
2019-05-28T02:37:39.116Z,100247.86
2019-05-28T02:38:46.865Z,100245.44
2019-05-28T02:39:53.652Z,100246.21
2019-05-28T02:41:01.760Z,100248.41
2019-05-28T02:42:08.772Z,100246.84
2019-05-28T02:43:16.776Z,100249.87
2019-05-28T02:44:23.776Z,100246.98
2019-05-28T02:45:32.556Z,100243.84
2019-05-28T02:46:39.707Z,100247.49
2019-05-28T02:47:47.702Z,100245.44
2019-05-28T02:48:54.520Z,100245.50
2019-05-28T02:50:02.340Z,100246.78
2019-05-28T02:51:09.149Z,100251.72
2019-05-28T02:52:17.060Z,100248.02
2019-05-28T02:53:23.954Z,100249.16
2019-05-28T02:54:33.315Z,100252.84
2019-05-28T02:55:42.144Z,100245.19
2019-05-28T02:56:53.024Z,100245.04
2019-05-28T02:58:00.381Z,100247.87
2019-05-28T02:59:09.535Z,100245.67
2019-05-28T03:00:18.834Z,100244.13
2019-05-28T03:01:42.996Z,100240.38
2019-05-28T03:02:39.367Z,100241.47
2019-05-28T03:03:50.040Z,100244.14
2019-05-28T03:05:01.510Z,100243.15
2019-05-28T03:06:15.891Z,100237.20
2019-05-28T03:07:23.495Z,100247.00
2019-05-28T03:08:34.348Z,100237.67
2019-05-28T03:09:46.210Z,100242.86
2019-05-28T03:11:02.303Z,100240.75
2019-05-28T03:12:02.451Z,100242.55
2019-05-28T03:13:10.251Z,100238.75
2019-05-28T03:14:17.502Z,100238.75
2019-05-28T03:15:25.402Z,100241.06
2019-05-28T03:16:36.051Z,100243.78
2019-05-28T03:17:45.900Z,100245.84
2019-05-28T03:18:56.051Z,100242.45
2019-05-28T03:20:07.432Z,100246.36
2019-05-28T03:21:16.884Z,100245.13
2019-05-28T03:22:26.370Z,100245.84
2019-05-28T03:23:36.402Z,100243.69
2019-05-28T03:24:48.539Z,100241.27
2019-05-28T03:25:55.502Z,100245.11
2019-05-28T03:27:03.567Z,100242.14
2019-05-28T03:28:10.365Z,100240.03
2019-05-28T03:29:18.750Z,100235.92
2019-05-28T03:30:25.554Z,100242.50
2019-05-28T03:31:33.170Z,100237.47
2019-05-28T03:32:40.087Z,100245.01
2019-05-28T03:33:47.704Z,100250.66
2019-05-28T03:34:54.818Z,100242.55
2019-05-28T03:36:10.885Z,100242.44
2019-05-28T03:37:19.613Z,100238.19
2019-05-28T03:38:29.480Z,100231.00
2019-05-28T03:39:39.925Z,100235.55
2019-05-28T03:40:49.463Z,100238.48
2019-05-28T03:41:57.255Z,100235.20
2019-05-28T03:43:04.868Z,100233.97
2019-05-28T03:44:11.942Z,100239.09
2019-05-28T03:45:20.286Z,100247.26
2019-05-28T03:46:27.421Z,100241.56
2019-05-28T03:47:35.337Z,100246.08
2019-05-28T03:48:42.152Z,100243.52
2019-05-28T03:49:50.281Z,100237.09
2019-05-28T03:50:57.109Z,100243.88
2019-05-28T03:52:04.742Z,100246.08
2019-05-28T03:53:11.937Z,100247.10
2019-05-28T03:54:19.882Z,100250.55
2019-05-28T03:55:27.105Z,100249.77
2019-05-28T03:56:34.874Z,100252.61
2019-05-28T03:57:42.054Z,100245.81
2019-05-28T03:58:50.045Z,100244.53
2019-05-28T03:59:58.002Z,100248.14
2019-05-28T04:01:06.149Z,100252.05
2019-05-28T04:02:23.022Z,100256.81
2019-05-28T04:03:22.390Z,100259.43
2019-05-28T04:04:29.180Z,100258.35
2019-05-28T04:05:37.156Z,100253.16
2019-05-28T04:06:44.351Z,100257.77
2019-05-28T04:07:52.324Z,100259.77
2019-05-28T04:08:59.525Z,100258.75
2019-05-28T04:10:07.913Z,100255.20
2019-05-28T04:11:15.007Z,100259.93
2019-05-28T04:12:22.616Z,100254.80
2019-05-28T04:13:29.470Z,100255.57
2019-05-28T04:14:37.542Z,100261.94
2019-05-28T04:15:44.350Z,100257.58
2019-05-28T04:16:52.430Z,100261.37
2019-05-28T04:17:59.640Z,100262.98
2019-05-28T04:19:08.071Z,100257.23
2019-05-28T04:20:14.975Z,100256.67
2019-05-28T04:21:22.883Z,100258.20
2019-05-28T04:22:29.731Z,100258.09
2019-05-28T04:23:41.230Z,100253.84
2019-05-28T04:24:45.924Z,100258.41
2019-05-28T04:25:54.088Z,100262.31
2019-05-28T04:27:00.917Z,100261.24
2019-05-28T04:28:08.967Z,100265.30
2019-05-28T04:29:16.203Z,100261.66
2019-05-28T04:30:24.140Z,100257.41
2019-05-28T04:31:30.986Z,100256.12
2019-05-28T04:32:40.950Z,100258.27
2019-05-28T04:33:47.542Z,100257.30
2019-05-28T04:34:55.438Z,100261.04
2019-05-28T04:36:03.132Z,100261.98
2019-05-28T04:37:10.759Z,100259.35
2019-05-28T04:38:17.993Z,100263.77
2019-05-28T04:39:25.641Z,100262.38
2019-05-28T04:40:32.862Z,100259.92
2019-05-28T04:41:40.486Z,100259.86
2019-05-28T04:42:47.654Z,100257.30
2019-05-28T04:43:55.635Z,100262.64
2019-05-28T04:45:02.497Z,100261.19
2019-05-28T04:46:10.149Z,100260.22
2019-05-28T04:47:16.974Z,100264.13
2019-05-28T04:48:24.601Z,100267.16
2019-05-28T04:49:31.404Z,100265.77
2019-05-28T04:50:39.056Z,100270.50
2019-05-28T04:51:45.892Z,100267.41
2019-05-28T04:52:53.491Z,100268.84
2019-05-28T04:54:00.303Z,100272.80
2019-05-28T04:55:09.091Z,100272.80
2019-05-28T04:56:16.147Z,100270.69
2019-05-28T04:57:24.030Z,100268.61
2019-05-28T04:58:31.233Z,100272.80
2019-05-28T04:59:38.937Z,100267.05
2019-05-28T05:00:46.198Z,100270.70
2019-05-28T05:01:53.911Z,100264.73
2019-05-28T05:03:02.729Z,100266.48
2019-05-28T05:04:10.698Z,100264.57
2019-05-28T05:05:18.016Z,100262.83
2019-05-28T05:06:25.617Z,100261.55
2019-05-28T05:07:32.428Z,100257.86
2019-05-28T05:08:40.351Z,100263.20
2019-05-28T05:09:47.176Z,100259.20
2019-05-28T05:10:54.840Z,100262.62
2019-05-28T05:12:01.651Z,100268.33
2019-05-28T05:13:09.252Z,100260.48
2019-05-28T05:14:16.134Z,100265.14
2019-05-28T05:15:23.720Z,100270.28
2019-05-28T05:16:30.674Z,100267.47
2019-05-28T05:17:38.287Z,100268.84
2019-05-28T05:18:45.124Z,100264.08
2019-05-28T05:19:53.088Z,100263.47
2019-05-28T05:20:59.977Z,100264.48
2019-05-28T05:22:07.990Z,100255.85
2019-05-28T05:23:14.798Z,100267.98
2019-05-28T05:24:22.467Z,100267.41
2019-05-28T05:25:29.311Z,100265.56
2019-05-28T05:26:36.910Z,100267.91
2019-05-28T05:27:44.183Z,100268.91
2019-05-28T05:28:52.144Z,100271.25
2019-05-28T05:29:59.249Z,100271.63
2019-05-28T05:31:06.926Z,100277.83
2019-05-28T05:32:13.795Z,100275.91
2019-05-28T05:33:21.444Z,100276.39
2019-05-28T05:34:28.605Z,100276.73
2019-05-28T05:35:36.731Z,100278.20
2019-05-28T05:36:43.536Z,100275.52
2019-05-28T05:37:51.139Z,100285.94
2019-05-28T05:38:57.977Z,100277.05
2019-05-28T05:40:06.442Z,100283.37
2019-05-28T05:41:13.295Z,100284.63
2019-05-28T05:42:21.465Z,100284.77
2019-05-28T05:43:28.429Z,100286.57
2019-05-28T05:44:36.008Z,100296.70
2019-05-28T05:45:43.256Z,100294.94
2019-05-28T05:46:50.875Z,100295.37
2019-05-28T05:47:57.731Z,100290.17
2019-05-28T05:49:05.371Z,100290.48
2019-05-28T05:50:12.718Z,100286.31
2019-05-28T05:51:20.438Z,100288.05
2019-05-28T05:52:27.288Z,100297.83
2019-05-28T05:53:34.970Z,100290.82
2019-05-28T05:54:41.828Z,100284.77
2019-05-28T05:55:49.427Z,100287.45
2019-05-28T05:56:56.233Z,100286.62
2019-05-28T05:58:03.862Z,100287.80
2019-05-28T05:59:10.728Z,100280.20
2019-05-28T06:00:19.334Z,100285.73
2019-05-28T06:01:26.149Z,100279.00
2019-05-28T06:02:34.451Z,100279.94
2019-05-28T06:03:42.241Z,100290.63
2019-05-28T06:04:49.968Z,100284.05
2019-05-28T06:05:56.774Z,100292.28
2019-05-28T06:07:04.388Z,100282.91
2019-05-28T06:08:11.591Z,100284.66
2019-05-28T06:09:19.197Z,100286.45
2019-05-28T06:10:26.434Z,100282.79
2019-05-28T06:11:34.309Z,100287.30
2019-05-28T06:12:41.437Z,100284.84
2019-05-28T06:13:49.108Z,100289.41
2019-05-28T06:14:55.935Z,100284.98
2019-05-28T06:16:03.897Z,100283.27
2019-05-28T06:17:10.740Z,100282.23
2019-05-28T06:18:19.010Z,100286.73
2019-05-28T06:19:26.256Z,100279.08
2019-05-28T06:20:34.138Z,100283.58
2019-05-28T06:21:41.337Z,100276.89
2019-05-28T06:22:49.098Z,100283.27
2019-05-28T06:23:55.883Z,100285.11
2019-05-28T06:25:03.546Z,100281.13
2019-05-28T06:26:10.777Z,100283.84
2019-05-28T06:27:19.503Z,100282.28
2019-05-28T06:28:26.517Z,100285.83
2019-05-28T06:29:34.464Z,100289.35
2019-05-28T06:30:41.655Z,100287.95
2019-05-28T06:31:49.868Z,100289.50
2019-05-28T06:32:57.046Z,100295.94
2019-05-28T06:34:04.727Z,100293.15
2019-05-28T06:35:11.753Z,100292.31
2019-05-28T06:36:19.722Z,100291.79
2019-05-28T06:37:26.753Z,100290.59
2019-05-28T06:38:34.336Z,100292.31
2019-05-28T06:39:41.161Z,100298.37
2019-05-28T06:40:48.822Z,100298.83
2019-05-28T06:41:56.017Z,100298.43
2019-05-28T06:43:03.624Z,100297.28
2019-05-28T06:44:10.787Z,100302.36
2019-05-28T06:45:18.589Z,100301.66
2019-05-28T06:46:25.779Z,100301.66
2019-05-28T06:47:33.387Z,100300.43
2019-05-28T06:48:40.515Z,100302.48
2019-05-28T06:49:48.110Z,100304.34
2019-05-28T06:50:54.899Z,100304.34
2019-05-28T06:52:03.153Z,100300.60
2019-05-28T06:53:10.007Z,100305.58
2019-05-28T06:54:17.669Z,100308.52
2019-05-28T06:55:24.475Z,100306.55
2019-05-28T06:56:32.085Z,100306.80
2019-05-28T06:57:38.912Z,100310.97
2019-05-28T06:58:46.998Z,100312.89
2019-05-28T06:59:53.837Z,100315.27
2019-05-28T07:01:01.559Z,100314.90
2019-05-28T07:02:08.920Z,100318.23
2019-05-28T07:03:16.522Z,100321.98
2019-05-28T07:04:32.249Z,100323.95
2019-05-28T07:05:32.962Z,100324.09
2019-05-28T07:06:39.756Z,100325.95
2019-05-28T07:07:47.714Z,100330.53
2019-05-28T07:08:54.788Z,100334.52
2019-05-28T07:10:02.370Z,100336.83
2019-05-28T07:11:09.875Z,100339.66
2019-05-28T07:12:18.372Z,100343.80
2019-05-28T07:13:25.784Z,100346.41
2019-05-28T07:14:33.555Z,100351.12
2019-05-28T07:15:40.375Z,100349.84
2019-05-28T07:16:53.226Z,100351.95
2019-05-28T07:17:59.494Z,100358.27
2019-05-28T07:19:23.036Z,100356.34
2019-05-28T07:20:15.355Z,100354.20
2019-05-28T07:21:22.953Z,100355.83
2019-05-28T07:22:29.763Z,100353.19
2019-05-28T07:23:37.370Z,100352.08
2019-05-28T07:24:44.229Z,100352.61
2019-05-28T07:25:52.451Z,100354.26
2019-05-28T07:26:59.257Z,100352.84
2019-05-28T07:28:11.301Z,100347.27
2019-05-28T07:29:15.840Z,100346.89
2019-05-28T07:30:23.731Z,100347.89
2019-05-28T07:31:30.914Z,100346.73
2019-05-28T07:32:38.509Z,100344.91
2019-05-28T07:33:45.509Z,100346.25
2019-05-28T07:34:53.451Z,100347.48
2019-05-28T07:36:00.251Z,100350.84
2019-05-28T07:37:07.920Z,100351.20
2019-05-28T07:38:14.770Z,100356.31
2019-05-28T07:39:22.374Z,100354.16
2019-05-28T07:40:32.037Z,100360.69
2019-05-28T07:41:38.516Z,100355.50
2019-05-28T07:42:45.413Z,100352.81
2019-05-28T07:43:53.364Z,100355.63
2019-05-28T07:45:00.160Z,100354.13
2019-05-28T07:46:08.051Z,100359.88
2019-05-28T07:47:14.875Z,100359.56
2019-05-28T07:48:22.933Z,100357.50
2019-05-28T07:49:30.055Z,100360.34
2019-05-28T07:50:37.642Z,100360.28
2019-05-28T07:51:44.781Z,100364.23
2019-05-28T07:52:52.380Z,100361.83
2019-05-28T07:53:59.518Z,100362.78
2019-05-28T07:55:07.598Z,100366.53
2019-05-28T07:56:14.560Z,100364.12
2019-05-28T07:57:22.161Z,100367.20
2019-05-28T07:58:28.958Z,100365.36
2019-05-28T07:59:36.577Z,100362.47
2019-05-28T08:00:44.113Z,100363.30
2019-05-28T08:01:51.848Z,100361.01
2019-05-28T08:02:59.041Z,100363.08
2019-05-28T08:04:06.640Z,100359.37
2019-05-28T08:05:17.113Z,100365.92
2019-05-28T08:06:23.363Z,100368.54
2019-05-28T08:07:30.521Z,100360.11
2019-05-28T08:08:38.131Z,100365.24
2019-05-28T08:09:44.974Z,100358.22
2019-05-28T08:10:52.775Z,100360.61
2019-05-28T08:11:59.634Z,100364.97
2019-05-28T08:13:07.943Z,100358.59
2019-05-28T08:14:15.151Z,100359.50
2019-05-28T08:15:22.924Z,100365.11
2019-05-28T08:16:29.742Z,100364.56
2019-05-28T08:17:37.477Z,100364.73
2019-05-28T08:18:44.550Z,100364.73
2019-05-28T08:19:52.150Z,100356.48
2019-05-28T08:20:59.556Z,100365.20
2019-05-28T08:22:08.481Z,100358.59
2019-05-28T08:23:15.264Z,100361.62
2019-05-28T08:24:23.182Z,100356.66
2019-05-28T08:25:46.137Z,100356.77
2019-05-28T08:26:39.866Z,100355.66
2019-05-28T08:27:46.721Z,100356.08
2019-05-28T08:28:54.333Z,100360.66
2019-05-28T08:30:01.792Z,100356.65
2019-05-28T08:31:15.985Z,100356.75
2019-05-28T08:32:18.300Z,100360.66
2019-05-28T08:33:25.894Z,100352.84
2019-05-28T08:34:33.096Z,100356.09
2019-05-28T08:35:40.709Z,100349.31
2019-05-28T08:37:04.432Z,100355.36
2019-05-28T08:37:57.171Z,100350.67
2019-05-28T08:39:05.620Z,100349.09
2019-05-28T08:40:13.406Z,100355.31
2019-05-28T08:41:20.269Z,100350.76
2019-05-28T08:42:28.092Z,100349.21
2019-05-28T08:43:35.070Z,100351.59
2019-05-28T08:44:43.224Z,100353.80
2019-05-28T08:45:50.047Z,100356.58
2019-05-28T08:46:58.035Z,100350.30
2019-05-28T08:48:04.850Z,100353.95
2019-05-28T08:49:13.098Z,100354.34
2019-05-28T08:50:34.075Z,100361.70
2019-05-28T08:51:29.895Z,100359.33
2019-05-28T08:52:37.107Z,100364.82
2019-05-28T08:53:44.998Z,100366.30
2019-05-28T08:54:52.034Z,100368.37
2019-05-28T08:55:59.982Z,100363.88
2019-05-28T08:57:07.159Z,100367.11
2019-05-28T08:58:15.512Z,100372.97
2019-05-28T08:59:22.408Z,100368.91
2019-05-28T09:00:41.300Z,100373.20
2019-05-28T09:01:48.173Z,100373.00
2019-05-28T09:02:55.759Z,100369.14
2019-05-28T09:04:02.574Z,100373.97
2019-05-28T09:05:25.178Z,100375.31
2019-05-28T09:06:23.232Z,100379.28
2019-05-28T09:07:28.983Z,100384.98
2019-05-28T09:08:39.718Z,100386.78
2019-05-28T09:09:45.378Z,100388.12
2019-05-28T09:10:52.212Z,100390.44
2019-05-28T09:11:59.905Z,100395.27
2019-05-28T09:13:07.383Z,100393.78
2019-05-28T09:14:14.986Z,100399.59
2019-05-28T09:15:21.959Z,100402.77
2019-05-28T09:16:29.935Z,100403.75
2019-05-28T09:17:36.742Z,100407.80
2019-05-28T09:18:44.378Z,100405.07
2019-05-28T09:19:51.203Z,100412.06
2019-05-28T09:20:59.023Z,100415.25
2019-05-28T09:22:06.010Z,100417.61
2019-05-28T09:23:13.623Z,100419.84
2019-05-28T09:24:20.437Z,100422.05
2019-05-28T09:25:28.241Z,100423.08
2019-05-28T09:26:35.364Z,100423.95
2019-05-28T09:27:42.981Z,100428.99
2019-05-28T09:28:49.911Z,100429.41
2019-05-28T09:29:57.522Z,100432.65
2019-05-28T09:31:04.471Z,100433.11
2019-05-28T09:32:12.271Z,100431.88
2019-05-28T09:33:19.078Z,100430.28
2019-05-28T09:34:26.673Z,100431.62
2019-05-28T09:35:43.882Z,100429.81
2019-05-28T09:36:43.186Z,100429.30
2019-05-28T09:37:50.335Z,100432.70
2019-05-28T09:38:57.934Z,100436.14
2019-05-28T09:40:05.068Z,100436.36
2019-05-28T09:41:12.674Z,100439.70
2019-05-28T09:42:20.301Z,100433.69
2019-05-28T09:43:27.897Z,100439.45
2019-05-28T09:44:35.000Z,100438.11
2019-05-28T09:45:43.256Z,100439.91
2019-05-28T09:46:50.130Z,100444.11
2019-05-28T09:47:58.480Z,100441.92
2019-05-28T09:49:05.298Z,100446.39
2019-05-28T09:50:29.822Z,100443.55
2019-05-28T09:51:23.695Z,100445.77
2019-05-28T09:52:31.299Z,100444.13
2019-05-28T09:53:38.164Z,100443.95
2019-05-28T09:54:46.134Z,100447.97
2019-05-28T09:55:52.937Z,100446.44
2019-05-28T09:57:00.548Z,100441.70
2019-05-28T09:58:07.624Z,100453.11
2019-05-28T09:59:15.330Z,100447.00
2019-05-28T10:00:23.579Z,100449.84
2019-05-28T10:01:31.274Z,100453.70
2019-05-28T10:02:38.260Z,100451.84
2019-05-28T10:03:46.252Z,100451.33
2019-05-28T10:04:53.202Z,100451.07
2019-05-28T10:06:15.676Z,100457.95
2019-05-28T10:07:09.414Z,100451.84
2019-05-28T10:08:17.072Z,100457.29
2019-05-28T10:09:23.901Z,100458.09
2019-05-28T10:10:31.611Z,100457.70
2019-05-28T10:11:38.743Z,100464.89
2019-05-28T10:12:47.199Z,100454.83
2019-05-28T10:13:53.998Z,100455.44
2019-05-28T10:15:01.933Z,100459.30
2019-05-28T10:16:09.225Z,100459.03
2019-05-28T10:17:16.933Z,100462.67
2019-05-28T10:18:24.102Z,100454.77
2019-05-28T10:19:31.685Z,100458.41
2019-05-28T10:20:38.478Z,100460.11
2019-05-28T10:21:46.237Z,100456.23
2019-05-28T10:22:53.161Z,100453.19
2019-05-28T10:24:01.121Z,100456.95
2019-05-28T10:25:08.754Z,100454.21
2019-05-28T10:26:16.714Z,100455.41
2019-05-28T10:27:23.549Z,100446.05
2019-05-28T10:28:31.616Z,100444.72
2019-05-28T10:29:38.732Z,100453.85
2019-05-28T10:30:46.336Z,100449.83
2019-05-28T10:31:53.343Z,100448.72
2019-05-28T10:33:01.204Z,100445.11
2019-05-28T10:34:08.410Z,100445.29
2019-05-28T10:35:17.196Z,100443.55
2019-05-28T10:36:34.936Z,100437.36
2019-05-28T10:37:33.696Z,100438.00
2019-05-28T10:38:40.579Z,100441.40
2019-05-28T10:39:48.735Z,100437.22
2019-05-28T10:40:55.531Z,100431.77
2019-05-28T10:42:03.489Z,100428.93
2019-05-28T10:43:10.679Z,100433.28
2019-05-28T10:44:18.669Z,100429.33
2019-05-28T10:45:26.277Z,100430.30
2019-05-28T10:46:33.972Z,100428.18
2019-05-28T10:47:40.824Z,100431.94
2019-05-28T10:48:48.842Z,100433.27
2019-05-28T10:49:55.667Z,100431.16
2019-05-28T10:51:03.261Z,100430.70
2019-05-28T10:52:10.412Z,100432.17
2019-05-28T10:53:18.234Z,100429.16
2019-05-28T10:54:25.120Z,100423.56
2019-05-28T10:55:33.097Z,100433.05
2019-05-28T10:56:39.968Z,100428.52
2019-05-28T10:57:47.858Z,100428.83
2019-05-28T10:58:54.703Z,100434.34
2019-05-28T11:00:02.870Z,100432.09
2019-05-28T11:01:10.160Z,100433.37
2019-05-28T11:02:17.861Z,100436.44
2019-05-28T11:03:25.252Z,100434.75
2019-05-28T11:04:32.848Z,100438.05
2019-05-28T11:05:39.667Z,100436.58
2019-05-28T11:06:51.912Z,100439.80
2019-05-28T11:07:56.225Z,100440.48
2019-05-28T11:09:04.225Z,100445.70
2019-05-28T11:10:23.603Z,100441.75
2019-05-28T11:11:23.295Z,100453.58
2019-05-28T11:12:30.139Z,100453.48
2019-05-28T11:13:52.003Z,100451.69
2019-05-28T11:14:46.843Z,100455.09
2019-05-28T11:15:54.784Z,100452.15
2019-05-28T11:17:01.576Z,100463.48
2019-05-28T11:18:09.170Z,100464.02
2019-05-28T11:19:16.332Z,100471.85
2019-05-28T11:20:24.875Z,100469.35
2019-05-28T11:21:31.866Z,100473.94
2019-05-28T11:22:39.460Z,100471.89
2019-05-28T11:23:47.060Z,100478.80
2019-05-28T11:24:55.203Z,100477.16
2019-05-28T11:26:02.381Z,100474.63
2019-05-28T11:27:09.971Z,100477.51
2019-05-28T11:28:16.782Z,100478.32
2019-05-28T11:29:24.827Z,100484.70
2019-05-28T11:30:32.029Z,100483.78
2019-05-28T11:31:39.632Z,100479.41
2019-05-28T11:32:46.744Z,100478.98
2019-05-28T11:33:55.450Z,100485.96
2019-05-28T11:35:02.891Z,100489.39
2019-05-28T11:36:10.511Z,100492.53
2019-05-28T11:37:17.410Z,100492.77
2019-05-28T11:38:25.050Z,100489.62
2019-05-28T11:39:31.857Z,100491.50
2019-05-28T11:40:39.452Z,100498.66
2019-05-28T11:41:46.263Z,100492.96
2019-05-28T11:42:53.868Z,100493.77
2019-05-28T11:44:00.835Z,100494.39
2019-05-28T11:45:10.458Z,100490.30
2019-05-28T11:46:17.338Z,100497.96
2019-05-28T11:47:24.970Z,100493.58
2019-05-28T11:48:32.237Z,100499.81
2019-05-28T11:49:40.236Z,100495.83
2019-05-28T11:50:47.916Z,100501.98
2019-05-28T11:51:55.504Z,100503.15
2019-05-28T11:53:02.430Z,100507.78
2019-05-28T11:54:10.032Z,100510.70
2019-05-28T11:55:18.525Z,100506.31
2019-05-28T11:56:26.463Z,100511.80
2019-05-28T11:57:33.675Z,100511.53
2019-05-28T11:58:41.272Z,100515.05
2019-05-28T11:59:48.085Z,100517.05
2019-05-28T12:00:55.678Z,100513.72
2019-05-28T12:02:05.067Z,100514.95
2019-05-28T12:03:11.831Z,100522.08
2019-05-28T12:04:18.661Z,100516.22
2019-05-28T12:05:26.739Z,100515.56
2019-05-28T12:06:38.069Z,100517.97
2019-05-28T12:07:43.433Z,100516.24
2019-05-28T12:08:50.788Z,100518.89
2019-05-28T12:09:58.723Z,100513.97
2019-05-28T12:11:05.928Z,100514.10
2019-05-28T12:12:13.547Z,100516.66
2019-05-28T12:13:20.395Z,100518.60
2019-05-28T12:14:28.591Z,100519.50
2019-05-28T12:15:35.380Z,100527.29
2019-05-28T12:16:43.294Z,100524.25
2019-05-28T12:17:50.608Z,100524.13
2019-05-28T12:18:58.618Z,100521.67
2019-05-28T12:20:06.877Z,100523.33
2019-05-28T12:21:15.280Z,100526.01
2019-05-28T12:22:22.153Z,100530.23
2019-05-28T12:23:29.753Z,100530.30
2019-05-28T12:24:36.702Z,100526.41
2019-05-28T12:25:44.413Z,100529.77
2019-05-28T12:26:51.304Z,100533.84
2019-05-28T12:27:59.598Z,100532.98
2019-05-28T12:29:07.141Z,100531.61
2019-05-28T12:30:18.664Z,100538.56
2019-05-28T12:31:26.403Z,100534.20
2019-05-28T12:32:33.984Z,100536.25
2019-05-28T12:33:41.267Z,100532.58
2019-05-28T12:34:48.933Z,100538.80
2019-05-28T12:35:56.404Z,100535.76
2019-05-28T12:37:04.044Z,100539.47
2019-05-28T12:38:10.860Z,100533.70
2019-05-28T12:39:18.880Z,100531.78
2019-05-28T12:40:26.089Z,100536.81
2019-05-28T12:41:33.671Z,100535.42
2019-05-28T12:42:40.498Z,100542.67
2019-05-28T12:43:48.760Z,100543.66
2019-05-28T12:45:09.073Z,100544.48
2019-05-28T12:46:05.794Z,100548.45
2019-05-28T12:47:14.790Z,100548.54
2019-05-28T12:48:21.939Z,100549.47
2019-05-28T12:49:28.749Z,100549.31
2019-05-28T12:50:36.333Z,100548.25
2019-05-28T12:51:43.419Z,100553.27